createdAt,value
2017-03-24T05:52:00.505Z,33.25
2017-03-24T05:53:05.500Z,43.44
2017-03-24T05:54:10.782Z,50.42
2017-03-24T05:55:16.113Z,53.80
2017-03-24T07:34:21.255Z,59.56
2017-03-24T07:35:25.628Z,57.86
2017-03-24T07:36:29.986Z,57.57
2017-03-24T07:37:34.380Z,57.48
2017-03-24T07:38:38.741Z,57.67
2017-03-24T07:39:43.101Z,56.91
2017-03-24T07:40:47.494Z,56.25
2017-03-24T07:41:51.905Z,57.10
2017-03-24T07:42:56.296Z,57.57
2017-03-24T07:44:00.705Z,57.29
2017-03-24T07:45:05.953Z,56.56
2017-03-24T07:46:10.375Z,55.68
2017-03-24T07:47:14.812Z,56.18
2017-03-24T07:48:19.697Z,55.05
2017-03-24T07:49:24.067Z,53.65
2017-03-24T07:50:28.440Z,52.70
2017-03-24T07:51:32.867Z,52.14
2017-03-24T07:52:37.292Z,53.34
2017-03-24T07:53:41.722Z,54.10
2017-03-24T07:54:46.189Z,54.57
2017-03-24T07:55:50.787Z,54.86
2017-03-24T07:56:55.206Z,53.25
2017-03-24T07:57:59.608Z,53.44
2017-03-24T07:59:04.021Z,52.39
2017-03-24T08:00:08.398Z,54.07
2017-03-24T08:01:12.864Z,53.78
2017-03-24T08:02:17.179Z,54.26
2017-03-24T08:03:21.599Z,53.78
2017-03-24T08:04:26.001Z,54.64
2017-03-24T08:05:30.411Z,54.28
2017-03-24T08:06:34.800Z,54.83
2017-03-24T08:07:39.224Z,55.87
2017-03-24T08:08:43.598Z,55.87
2017-03-24T08:09:47.953Z,55.40
2017-03-24T08:10:52.240Z,55.58
2017-03-24T08:11:56.577Z,55.21
2017-03-24T08:13:01.434Z,54.55
2017-03-24T08:14:05.910Z,55.68
2017-03-24T08:15:10.309Z,55.68
2017-03-24T08:16:14.670Z,54.64
2017-03-24T08:17:19.056Z,55.21
2017-03-24T08:18:23.503Z,55.24
2017-03-24T08:19:28.145Z,54.00
2017-03-24T08:20:32.758Z,52.68
2017-03-24T08:21:37.206Z,53.22
2017-03-24T08:22:41.608Z,54.74
2017-03-24T08:23:46.021Z,55.43
2017-03-24T08:24:50.405Z,55.30
2017-03-24T08:25:54.849Z,55.58
2017-03-24T08:26:59.214Z,55.77
2017-03-24T08:28:03.609Z,56.44
2017-03-24T08:29:07.960Z,56.63
2017-03-24T08:30:12.393Z,56.72
2017-03-24T08:31:16.769Z,55.96
2017-03-24T08:32:21.210Z,55.68
2017-03-24T08:33:25.651Z,55.77
2017-03-24T08:34:30.016Z,55.68
2017-03-24T08:35:34.501Z,56.06
2017-03-24T08:36:38.889Z,56.53
2017-03-24T08:37:43.288Z,56.82
2017-03-24T08:38:47.720Z,57.76
2017-03-24T08:39:52.148Z,56.44
2017-03-24T08:40:56.607Z,55.49
2017-03-24T08:42:01.019Z,56.06
2017-03-24T09:55:55.670Z,10.69
2017-03-24T09:57:00.216Z,26.82
2017-03-24T09:58:04.631Z,39.51
2017-03-24T09:59:09.034Z,45.57
2017-03-24T10:00:13.528Z,47.85
2017-03-24T10:01:17.980Z,48.68
2017-03-24T10:02:22.374Z,50.57
2017-03-24T10:03:26.838Z,50.28
2017-03-24T10:04:32.454Z,50.40
2017-03-24T10:05:37.385Z,49.46
2017-03-24T10:06:41.703Z,48.79
2017-03-24T10:07:46.620Z,50.31
2017-03-24T10:08:51.072Z,51.45
2017-03-24T10:09:55.719Z,51.61
2017-03-24T10:11:00.228Z,51.80
2017-03-24T10:12:04.958Z,52.08
2017-03-24T10:13:09.602Z,52.37
2017-03-24T10:14:13.968Z,53.13
2017-03-24T10:15:18.511Z,53.31
2017-03-24T10:16:23.292Z,52.29
2017-03-24T10:17:27.809Z,50.88
2017-03-24T10:18:32.174Z,51.73
2017-03-24T10:19:36.834Z,51.45
2017-03-24T10:20:41.528Z,51.73
2017-03-24T10:21:45.908Z,51.80
